Thunder radar more information blitzortung!


Radar de pluja more information rain snow radar


Visita la nostra xarxa de llocs de meteo:

Template documentation
and downloads

And another site



No particular awareness of the weather is required.    There are no Weather-warnings

Pagina Historial Weather Underground text

Diari Resum Juny 14, 2017 Unitats:  Mètric    Imperial   Tant
« Previous Dia
SegĂźent Dia »
Diari Setmana Mensual Anual Personalitzada
  Maxima: Minima: Media:
Temperatura: -17.8 °C -7.2 °C -1.6 °C
Punt de rosada: -17.8 °C -14.9 °C -12.6 °C
Humitat: Humidity % 22 % 30 %
Wind Speed: 0 km/h 0 km/h 13.4 km/h
RĂ fegues de vent: 0 km/h - -
Vent:- - SSW
Pression baro: 0 hPa 34164.7 hPa -
Precipitacions: 0 mm    
Historical Graphs
 
 
Dades de taula per Juny 14, 2017
Temps Temperatura Punt de rosada Pression baro Vent Wind Speed RĂ fegues de vent Humitat Rainfall Rate (Hourly)
-17.8 °C -17.8 °C 0 hPa Calm     Humidity % 0 mm
00:02 -4.4 °C -11.8 °C 34256.2 hPa SW 3.1 km/h 3.7 km/h 43 % 0 mm
01:45 -7.2 °C -11.9 °C 34327.3 hPa SW 2.6 km/h 2.6 km/h 58 % 0 mm
01:55 -7.2 °C -11.8 °C 34327.3 hPa Calm   2.6 km/h 58 % 0 mm
02:05 -6.8 °C -11.5 °C 34327.3 hPa SW 2.6 km/h 2.6 km/h 58 % 0 mm
02:15 -6.7 °C -11.7 °C 34327.3 hPa Calm   5.1 km/h 56 % 0 mm
02:25 -6.3 °C -11.5 °C 34327.3 hPa ENE 2.6 km/h 2.6 km/h 55 % 0 mm
02:35 -6.1 °C -11.5 °C 34327.3 hPa ENE 2.6 km/h 2.6 km/h 54 % 0 mm
02:45 -5.9 °C -11.5 °C 34327.3 hPa Calm   2.6 km/h 53 % 0 mm
02:55 -5.8 °C -11.2 °C 34327.3 hPa Calm   2.6 km/h 54 % 0 mm
03:05 -5.6 °C -11.3 °C 34327.3 hPa ENE 5.1 km/h 5.1 km/h 52 % 0 mm
03:15 -5.6 °C -11.4 °C 34327.3 hPa ENE 2.6 km/h 5.1 km/h 51 % 0 mm
03:25 -5.3 °C -11.2 °C 34327.3 hPa Calm   5.1 km/h 51 % 0 mm
03:35 -5.1 °C -11.1 °C 34327.3 hPa SSW 2.6 km/h 5.1 km/h 51 % 0 mm
03:45 -4.8 °C -11.3 °C 34327.3 hPa NE 5.1 km/h 10.3 km/h 48 % 0 mm
03:55 -4.4 °C -10.9 °C 34327.3 hPa ENE 2.6 km/h 5.1 km/h 48 % 0 mm
04:05 -4.2 °C -10.9 °C 34327.3 hPa East 2.6 km/h 5.1 km/h 47 % 0 mm
04:15 -3.9 °C -10.8 °C 34327.3 hPa SSE 2.6 km/h 5.1 km/h 46 % 0 mm
04:25 -4 °C -10.9 °C 34293.4 hPa SW 5.1 km/h 5.1 km/h 46 % 0 mm
04:35 -3.7 °C -10.8 °C 34293.4 hPa Calm   5.1 km/h 45 % 0 mm
04:45 -3.2 °C -10.5 °C 34293.4 hPa SW 5.1 km/h 5.1 km/h 44 % 0 mm
04:55 -2.8 °C -10.4 °C 34327.3 hPa SSE 2.6 km/h 5.1 km/h 43 % 0 mm
05:05 -2.4 °C -10.2 °C 34327.3 hPa ESE 5.1 km/h 7.7 km/h 42 % 0 mm
05:15 -2.1 °C -10.4 °C 34293.4 hPa SE 7.7 km/h 7.7 km/h 40 % 0 mm
05:25 -1.7 °C -10.2 °C 34327.3 hPa SSE 5.1 km/h 5.1 km/h 39 % 0 mm
05:35 -1.7 °C -10.4 °C 34327.3 hPa SSW 7.7 km/h 10.3 km/h 38 % 0 mm
10:41 -1.6 °C -10.8 °C 34293.4 hPa SW 15 km/h 15 km/h 36 % 0 mm
10:46 -1.6 °C -10.8 °C 34256.2 hPa WSW 11.9 km/h 11.9 km/h 36 % 0 mm
10:51 -1.4 °C -10.7 °C 34256.2 hPa SW 8.5 km/h 8.5 km/h 36 % 0 mm
10:56 -0.9 °C -10.5 °C 34256.2 hPa West 6 km/h 6 km/h 35 % 0 mm
11:01 -0.8 °C -10.6 °C 34293.4 hPa WNW 17.9 km/h 17.9 km/h 34 % 0 mm
11:06 -0.7 °C -10.5 °C 34293.4 hPa SSW 16.1 km/h 16.1 km/h 34 % 0 mm
11:11 -0.8 °C -10.8 °C 34293.4 hPa SSE 15 km/h 15 km/h 33 % 0 mm
11:16 -0.5 °C -10.9 °C 34256.2 hPa WNW 17.9 km/h 17.9 km/h 32 % 0 mm
11:21 -0.4 °C -11 °C 34256.2 hPa South 15 km/h 15 km/h 31 % 0 mm
11:26 -0.5 °C -11.1 °C 34256.2 hPa SW 20.9 km/h 20.9 km/h 31 % 0 mm
11:31 -0.5 °C -11.4 °C 34256.2 hPa SW 20.9 km/h 20.9 km/h 30 % 0 mm
11:36 -0.4 °C -11.3 °C 34256.2 hPa SW 20.9 km/h 20.9 km/h 30 % 0 mm
11:41 -0.4 °C -11.3 °C 34256.2 hPa SW 22.5 km/h 22.5 km/h 30 % 0 mm
11:46 -0.3 °C -11.5 °C 34256.2 hPa SW 15 km/h 15 km/h 29 % 0 mm
11:51 -0.2 °C -11.4 °C 34256.2 hPa SW 20.9 km/h 22.5 km/h 29 % 0 mm
11:56 -0.3 °C -11.8 °C 34256.2 hPa WSW 17.9 km/h 17.9 km/h 28 % 0 mm
12:01 -0.2 °C -11.4 °C 34256.2 hPa SW 29.8 km/h 29.8 km/h 29 % 0 mm
12:06 -0.1 °C -11.3 °C 34256.2 hPa SW 14.5 km/h 14.5 km/h 29 % 0 mm
12:11 -0.2 °C -11.7 °C 34256.2 hPa SW 23.8 km/h 23.8 km/h 28 % 0 mm
12:16 -0.1 °C -11.6 °C 34256.2 hPa SSW 20.9 km/h 20.9 km/h 28 % 0 mm
12:21 0 °C -11.8 °C 34256.2 hPa SW 20.9 km/h 20.9 km/h 27 % 0 mm
12:26 0.2 °C -11.7 °C 34256.2 hPa SW 20.9 km/h 20.9 km/h 27 % 0 mm
12:31 0.3 °C -11.6 °C 34256.2 hPa WSW 17.9 km/h 17.9 km/h 27 % 0 mm
12:32 0.3 °C -11.6 °C 34256.2 hPa SW 15.3 km/h 15.3 km/h 27 % 0 mm
12:37 0.4 °C -11.5 °C 34256.2 hPa South 15 km/h 15 km/h 27 % 0 mm
12:42 0.3 °C -11.6 °C 34256.2 hPa SSW 26.9 km/h 26.9 km/h 27 % 0 mm
12:47 0.3 °C -11.9 °C 34256.2 hPa SSW 35.7 km/h 35.7 km/h 26 % 0 mm
12:52 0.3 °C -11.9 °C 34256.2 hPa SSW 23.8 km/h 23.8 km/h 26 % 0 mm
12:57 0.6 °C -11.7 °C 34256.2 hPa SSW 15.3 km/h 15.3 km/h 26 % 0 mm
13:02 0.6 °C -11.7 °C 34256.2 hPa SSE 20.9 km/h 20.9 km/h 26 % 0 mm
13:07 1.1 °C -11.3 °C 34256.2 hPa SSW 7.6 km/h 7.6 km/h 26 % 0 mm
13:12 0.9 °C -11.4 °C 34256.2 hPa South 31.4 km/h 31.4 km/h 26 % 0 mm
13:17 0.8 °C -11.4 °C 34256.2 hPa SW 23.8 km/h 23.8 km/h 26 % 0 mm
13:22 0.9 °C -11.4 °C 34256.2 hPa SSE 15 km/h 15 km/h 26 % 0 mm
13:27 0.9 °C -11.3 °C 34256.2 hPa WSW 26.9 km/h 26.9 km/h 26 % 0 mm
13:32 1 °C -11.7 °C 34256.2 hPa SW 19.6 km/h 19.6 km/h 25 % 0 mm
13:37 1 °C -11.7 °C 34256.2 hPa SSW 20.9 km/h 20.9 km/h 25 % 0 mm
13:42 1.4 °C -11.3 °C 34256.2 hPa WSW 15 km/h 15.6 km/h 25 % 0 mm
13:47 1.1 °C -11.6 °C 34222.3 hPa South 14.5 km/h 14.5 km/h 25 % 0 mm
13:52 1.1 °C -11.6 °C 34222.3 hPa South 17.9 km/h 17.9 km/h 25 % 0 mm
13:57 1.1 °C -11.9 °C 34222.3 hPa South 17.9 km/h 17.9 km/h 24 % 0 mm
14:02 1.1 °C -11.9 °C 34256.2 hPa ESE 29.8 km/h 29.8 km/h 24 % 0 mm
14:07 1.4 °C -11.3 °C 34256.2 hPa South 23.8 km/h 23.8 km/h 25 % 0 mm
14:12 1.1 °C -11.9 °C 34256.2 hPa SW 29.8 km/h 29.8 km/h 24 % 0 mm
14:17 1 °C -12 °C 34256.2 hPa SSW 27.2 km/h 27.2 km/h 24 % 0 mm
14:22 1.1 °C -11.9 °C 34256.2 hPa WSW 17.9 km/h 17.9 km/h 24 % 0 mm
14:27 1.2 °C -11.4 °C 34256.2 hPa SSW 15 km/h 15 km/h 25 % 0 mm
14:32 1.1 °C -11.9 °C 34256.2 hPa South 32.8 km/h 32.8 km/h 24 % 0 mm
14:37 1.3 °C -11.7 °C 34256.2 hPa South 15 km/h 15 km/h 24 % 0 mm
14:42 1.2 °C -11.8 °C 34256.2 hPa WSW 20.9 km/h 20.9 km/h 24 % 0 mm
14:47 1.2 °C -11.8 °C 34256.2 hPa SW 26.9 km/h 26.9 km/h 24 % 0 mm
14:52 1.4 °C -11.7 °C 34256.2 hPa SSW 15 km/h 15 km/h 24 % 0 mm
14:57 1.6 °C -11.6 °C 34256.2 hPa SSW 23.8 km/h 23.8 km/h 24 % 0 mm
15:02 1.3 °C -12.1 °C 34256.2 hPa SSW 32.8 km/h 32.8 km/h 23 % 0 mm
15:07 1.3 °C -11.8 °C 34256.2 hPa SW 22.5 km/h 22.5 km/h 24 % 0 mm
15:12 1.3 °C -11.8 °C 34256.2 hPa SSW 16.1 km/h 16.1 km/h 24 % 0 mm
15:17 1.2 °C -11.8 °C 34256.2 hPa WSW 15 km/h 15 km/h 24 % 0 mm
15:22 1.6 °C -11.9 °C 34256.2 hPa SSW 15.6 km/h 15.6 km/h 23 % 0 mm
15:27 1.7 °C -11.8 °C 34256.2 hPa SSE 11.9 km/h 11.9 km/h 23 % 0 mm
15:32 1.7 °C -12.2 °C 34256.2 hPa SSW 23.8 km/h 23.8 km/h 22 % 0 mm
15:37 1.6 °C -11.6 °C 34256.2 hPa SW 20.9 km/h 20.9 km/h 24 % 0 mm
15:42 1.6 °C -11.8 °C 34256.2 hPa West 23.8 km/h 23.8 km/h 23 % 0 mm
15:47 1.6 °C -11.8 °C 34222.3 hPa SW 25.9 km/h 25.9 km/h 23 % 0 mm
15:52 1.4 °C -12 °C 34222.3 hPa SW 20.9 km/h 20.9 km/h 23 % 0 mm
15:57 1.4 °C -12 °C 34222.3 hPa SSE 17.9 km/h 17.9 km/h 23 % 0 mm
16:02 1.6 °C -11.8 °C 34222.3 hPa SW 19.6 km/h 19.6 km/h 23 % 0 mm
16:07 1.6 °C -11.8 °C 34222.3 hPa WSW 26.9 km/h 26.9 km/h 23 % 0 mm
16:12 1.8 °C -12.1 °C 34222.3 hPa SSW 11.9 km/h 11.9 km/h 22 % 0 mm
16:17 1.8 °C -11.7 °C 34222.3 hPa SW 17.9 km/h 17.9 km/h 23 % 0 mm
16:22 1.7 °C -11.8 °C 34222.3 hPa SSW 20.9 km/h 20.9 km/h 23 % 0 mm
16:27 1.7 °C -12.2 °C 34222.3 hPa SW 23.8 km/h 23.8 km/h 22 % 0 mm
16:32 1.7 °C -12.1 °C 34222.3 hPa SW 23.8 km/h 23.8 km/h 22 % 0 mm
16:37 1.6 °C -11.8 °C 34222.3 hPa SSE 15 km/h 15 km/h 23 % 0 mm
16:42 1.3 °C -12.1 °C 34222.3 hPa SSE 17.9 km/h 17.9 km/h 23 % 0 mm
16:47 1.2 °C -12.2 °C 34222.3 hPa SSW 26.9 km/h 26.9 km/h 23 % 0 mm
16:52 1.3 °C -12.1 °C 34222.3 hPa SW 17.9 km/h 17.9 km/h 23 % 0 mm
16:57 1.5 °C -11.9 °C 34222.3 hPa SW 32.8 km/h 32.8 km/h 23 % 0 mm
17:02 1.1 °C -12.3 °C 34222.3 hPa WSW 26.9 km/h 26.9 km/h 23 % 0 mm
17:07 1.1 °C -12.3 °C 34222.3 hPa SW 23.8 km/h 23.8 km/h 23 % 0 mm
17:12 1.3 °C -11.8 °C 34222.3 hPa WSW 20.3 km/h 20.3 km/h 24 % 0 mm
17:17 1.1 °C -11.9 °C 34198.6 hPa SSW 23.8 km/h 23.8 km/h 24 % 0 mm
17:22 1.1 °C -11.9 °C 34198.6 hPa SSW 20.9 km/h 20.9 km/h 24 % 0 mm
17:27 1.3 °C -11.8 °C 34198.6 hPa West 20.9 km/h 20.9 km/h 24 % 0 mm
17:32 1.2 °C -11.8 °C 34198.6 hPa SW 17.9 km/h 17.9 km/h 24 % 0 mm
17:37 1.2 °C -11.8 °C 34198.6 hPa SW 12.7 km/h 12.7 km/h 24 % 0 mm
17:42 1.2 °C -11.8 °C 34198.6 hPa SSW 26.9 km/h 26.9 km/h 24 % 0 mm
17:47 0.9 °C -12.1 °C 34198.6 hPa SSE 29.8 km/h 29.8 km/h 24 % 0 mm
17:52 1 °C -12 °C 34198.6 hPa WSW 20.9 km/h 20.9 km/h 24 % 0 mm
17:57 1.1 °C -11.9 °C 34198.6 hPa East 20.9 km/h 20.9 km/h 24 % 0 mm
18:02 0.9 °C -12.4 °C 34198.6 hPa SE 17.9 km/h 17.9 km/h 23 % 0 mm
18:07 0.9 °C -12.4 °C 34198.6 hPa South 15 km/h 15 km/h 23 % 0 mm
18:12 0.8 °C -12.1 °C 34198.6 hPa South 17.9 km/h 17.9 km/h 24 % 0 mm
18:17 0.9 °C -12.1 °C 34198.6 hPa SW 15 km/h 15 km/h 24 % 0 mm
18:22 0.8 °C -12.2 °C 34198.6 hPa WSW 20.9 km/h 20.9 km/h 24 % 0 mm
18:27 0.7 °C -12.2 °C 34198.6 hPa WSW 15 km/h 15.6 km/h 24 % 0 mm
18:32 0.6 °C -12.3 °C 34164.7 hPa SW 14.5 km/h 14.5 km/h 24 % 0 mm
18:35 -3.7 °C -14.8 °C 34293.4 hPa WSW 2.6 km/h 5.1 km/h 28 % 0 mm
18:37 0.6 °C -12.7 °C 34164.7 hPa SW 26.9 km/h 26.9 km/h 23 % 0 mm
18:42 0.5 °C -12.4 °C 34164.7 hPa SSW 15.3 km/h 15.3 km/h 24 % 0 mm
18:45 -3.8 °C -14.8 °C 34293.4 hPa West 2.6 km/h 5.1 km/h 28 % 0 mm
18:47 0.4 °C -12.5 °C 34198.6 hPa SW 17.9 km/h 17.9 km/h 24 % 0 mm
18:52 0 °C -12.8 °C 34198.6 hPa SSW 29.8 km/h 29.8 km/h 24 % 0 mm
18:55 -3.8 °C -14.8 °C 34293.4 hPa Calm   5.1 km/h 28 % 0 mm
18:57 0.1 °C -12.8 °C 34198.6 hPa SW 20.9 km/h 20.9 km/h 24 % 0 mm
19:02 0.1 °C -12.7 °C 34198.6 hPa SW 15 km/h 15 km/h 24 % 0 mm
19:07 0 °C -12.8 °C 34198.6 hPa WSW 20.9 km/h 20.9 km/h 24 % 0 mm
19:12 -0.1 °C -12.9 °C 34198.6 hPa SW 29.8 km/h 29.8 km/h 24 % 0 mm
19:15 -4 °C -14.4 °C 34293.4 hPa Calm     30 % 0 mm
19:17 -0.2 °C -12.9 °C 34198.6 hPa SW 17.9 km/h 17.9 km/h 24 % 0 mm
19:22 -0.2 °C -13 °C 34198.6 hPa SSW 17.9 km/h 17.9 km/h 24 % 0 mm
19:25 -4.1 °C -14.5 °C 34293.4 hPa Calm   2.6 km/h 30 % 0 mm
19:27 -0.3 °C -13.1 °C 34198.6 hPa SSW 20.9 km/h 20.9 km/h 24 % 0 mm
19:32 -0.5 °C -13.2 °C 34198.6 hPa WSW 19.2 km/h 19.2 km/h 24 % 0 mm
19:35 -4.1 °C -14.5 °C 34293.4 hPa Calm     30 % 0 mm
19:37 -0.6 °C -13.3 °C 34198.6 hPa SW 15 km/h 15 km/h 24 % 0 mm
19:42 -0.7 °C -13.4 °C 34198.6 hPa WSW 23.8 km/h 23.8 km/h 24 % 0 mm
19:45 -4.2 °C -14.3 °C 34293.4 hPa Calm     31 % 0 mm
19:47 -0.8 °C -13.5 °C 34198.6 hPa SW 26.9 km/h 26.9 km/h 24 % 0 mm
19:52 -0.8 °C -13.5 °C 34198.6 hPa SW 15 km/h 15 km/h 24 % 0 mm
19:55 -4.4 °C -14.3 °C 34293.4 hPa Calm     32 % 0 mm
19:57 -0.8 °C -13.5 °C 34198.6 hPa SSW 15 km/h 15 km/h 24 % 0 mm
20:02 -0.9 °C -13.6 °C 34198.6 hPa SW 20.9 km/h 20.9 km/h 24 % 0 mm
20:05 -4.7 °C -14.5 °C 34293.4 hPa SSW 2.6 km/h 5.1 km/h 32 % 0 mm
20:07 -0.9 °C -13.6 °C 34198.6 hPa WSW 27.2 km/h 27.2 km/h 24 % 0 mm
20:12 -1.1 °C -13.7 °C 34198.6 hPa WSW 20.9 km/h 20.9 km/h 24 % 0 mm
20:15 -4.7 °C -14.2 °C 34293.4 hPa Calm   2.6 km/h 33 % 0 mm
20:18 -1.1 °C -14.1 °C 34198.6 hPa SW 17.9 km/h 17.9 km/h 23 % 0 mm
20:25 -4.7 °C -14.3 °C 34327.3 hPa NW 2.6 km/h 2.6 km/h 33 % 0 mm
20:28 -1.2 °C -13.8 °C 34198.6 hPa WSW 23.8 km/h 23.8 km/h 24 % 0 mm
20:33 -1.3 °C -13.9 °C 34222.3 hPa SSW 15 km/h 15 km/h 24 % 0 mm
20:35 -4.8 °C -13.9 °C 34327.3 hPa NNW 2.6 km/h 5.1 km/h 35 % 0 mm
20:38 -1.4 °C -14 °C 34222.3 hPa SW 15 km/h 15 km/h 24 % 0 mm
20:43 -1.4 °C -14.1 °C 34222.3 hPa SSW 15 km/h 15 km/h 24 % 0 mm
20:45 -4.9 °C -13.9 °C 34327.3 hPa Calm   7.7 km/h 35 % 0 mm
20:48 -1.6 °C -14.1 °C 34222.3 hPa SW 11.9 km/h 11.9 km/h 24 % 0 mm
20:53 -1.6 °C -14.2 °C 34222.3 hPa South 15 km/h 15 km/h 24 % 0 mm
20:55 -4.9 °C -14 °C 34327.3 hPa Calm     35 % 0 mm
20:58 -1.7 °C -13.9 °C 34222.3 hPa SW 15 km/h 15 km/h 25 % 0 mm
21:03 -1.8 °C -14 °C 34256.2 hPa SSW 11.9 km/h 11.9 km/h 25 % 0 mm
21:05 -5 °C -13.8 °C 34327.3 hPa Calm     36 % 0 mm
21:08 -1.9 °C -14.1 °C 34256.2 hPa SW 15 km/h 15 km/h 25 % 0 mm
21:13 -2 °C -14.2 °C 34256.2 hPa SW 9 km/h 9 km/h 25 % 0 mm
21:15 -5.2 °C -13.5 °C 34293.4 hPa Calm     38 % 0 mm
21:18 -2.1 °C -14.2 °C 34256.2 hPa SW 15 km/h 15 km/h 25 % 0 mm
21:23 -2.1 °C -14.3 °C 34256.2 hPa SW 15 km/h 15 km/h 25 % 0 mm
21:25 -5.3 °C -13.4 °C 34293.4 hPa Calm     39 % 0 mm
21:28 -2.2 °C -14.7 °C 34256.2 hPa SW 9 km/h 9 km/h 24 % 0 mm
21:33 -2.3 °C -14.5 °C 34256.2 hPa SW 9 km/h 9 km/h 25 % 0 mm
21:35 -5.4 °C -13.5 °C 34293.4 hPa Calm   2.6 km/h 39 % 0 mm
21:38 -2.4 °C -14.5 °C 34256.2 hPa SW 7.6 km/h 7.6 km/h 25 % 0 mm
21:43 -2.4 °C -14.6 °C 34256.2 hPa WSW 9 km/h 9 km/h 25 % 0 mm
21:45 -5.4 °C -13.3 °C 34293.4 hPa Calm   2.6 km/h 40 % 0 mm
21:48 -2.6 °C -14.7 °C 34256.2 hPa SW 6 km/h 6 km/h 25 % 0 mm
21:53 -2.7 °C -14.8 °C 34256.2 hPa SW 6.3 km/h 6.3 km/h 25 % 0 mm
21:55 -5.4 °C -13.4 °C 34293.4 hPa Calm     40 % 0 mm
21:58 -2.7 °C -14.8 °C 34256.2 hPa SW 9 km/h 9 km/h 25 % 0 mm
22:03 -2.8 °C -14.6 °C 34256.2 hPa SW 6 km/h 6 km/h 26 % 0 mm
22:05 -5.5 °C -13.4 °C 34293.4 hPa Calm   2.6 km/h 40 % 0 mm
22:08 -2.9 °C -14.6 °C 34256.2 hPa SW 6.3 km/h 6.3 km/h 26 % 0 mm
22:13 -3 °C -14.7 °C 34256.2 hPa SSW 6 km/h 6 km/h 26 % 0 mm
22:15 -5.5 °C -13.4 °C 34256.2 hPa Calm   2.6 km/h 40 % 0 mm
22:18 -3.1 °C -14.8 °C 34256.2 hPa SW 6 km/h 6 km/h 26 % 0 mm
22:23 -3.1 °C -14.8 °C 34256.2 hPa WSW 6.3 km/h 6.3 km/h 26 % 0 mm
22:25 -5.6 °C -13.3 °C 34256.2 hPa Calm   5.1 km/h 41 % 0 mm
22:28 -3.2 °C -14.8 °C 34256.2 hPa WSW 9 km/h 9 km/h 26 % 0 mm
22:33 -3.2 °C -14.6 °C 34256.2 hPa WSW 6.3 km/h 6.3 km/h 27 % 0 mm
22:35 -5.7 °C -13.4 °C 34256.2 hPa NE 2.6 km/h 2.6 km/h 41 % 0 mm
22:38 -3.3 °C -14.7 °C 34256.2 hPa WSW 6 km/h 6 km/h 27 % 0 mm
22:43 -3.4 °C -14.8 °C 34256.2 hPa WSW 6 km/h 6 km/h 27 % 0 mm
22:45 -5.9 °C -13.6 °C 34256.2 hPa Calm   5.1 km/h 41 % 0 mm
22:48 -3.4 °C -14.8 °C 34293.4 hPa SW 6 km/h 6 km/h 27 % 0 mm
22:53 -3.5 °C -14.8 °C 34293.4 hPa WSW 6.3 km/h 6.3 km/h 27 % 0 mm
22:55 -5.9 °C -13.4 °C 34256.2 hPa Calm   2.6 km/h 42 % 0 mm
22:58 -3.6 °C -14.9 °C 34293.4 hPa SW 6 km/h 6 km/h 27 % 0 mm
23:03 -3.6 °C -14.9 °C 34256.2 hPa SW 9 km/h 9 km/h 27 % 0 mm
23:05 -6.2 °C -13.4 °C 34256.2 hPa North 2.6 km/h 5.1 km/h 43 % 0 mm
23:08 -3.7 °C -14.9 °C 34256.2 hPa West 6 km/h 6 km/h 27 % 0 mm
23:15 -6.3 °C -13.3 °C 34256.2 hPa WSW 2.6 km/h 5.1 km/h 44 % 0 mm
23:25 -6.4 °C -13.5 °C 34256.2 hPa SW 2.6 km/h 5.1 km/h 44 % 0 mm
23:35 -6.6 °C -13.4 °C 34256.2 hPa Calm   5.1 km/h 45 % 0 mm
23:45 -6.6 °C -13.4 °C 34256.2 hPa SW 2.6 km/h 5.1 km/h 45 % 0 mm
23:55 -6.7 °C -13.6 °C 34256.2 hPa SW 5.1 km/h 5.1 km/h 45 % 0 mm
23:59 -3.9 °C -14.9 °C 34293.4 hPa Calm     28 % 0 mm
Meteo Sesrovires
Elogis d' Weather Underground - 1.5 mb

Guio original per  Jim McMurry - jmcmurry@mwt.net Adaptat per a la plantilla per  Wim van der Kuil - Leuven-Template.eu

Trobareu la nostra informacio del temps tambe a:

Weather Underground

AWEKAS